sensor_id;sensor_type;location;lat;lon;timestamp;temperature;humidity
49148;DHT22;41980;45.550;12.070;2023-07-08T00:04:28;22.40;60.20
49148;DHT22;41980;45.550;12.070;2023-07-08T00:10:31;22.30;60.20
49148;DHT22;41980;45.550;12.070;2023-07-08T00:16:34;22.40;60.10
49148;DHT22;41980;45.550;12.070;2023-07-08T00:22:36;22.30;60.20
49148;DHT22;41980;45.550;12.070;2023-07-08T00:28:40;22.30;60.60
49148;DHT22;41980;45.550;12.070;2023-07-08T00:34:42;22.30;60.70
49148;DHT22;41980;45.550;12.070;2023-07-08T00:40:50;22.30;60.90
49148;DHT22;41980;45.550;12.070;2023-07-08T00:59:15;22.10;61.30
49148;DHT22;41980;45.550;12.070;2023-07-08T01:05:23;22.00;61.60
49148;DHT22;41980;45.550;12.070;2023-07-08T01:11:27;22.00;61.70
49148;DHT22;41980;45.550;12.070;2023-07-08T01:17:29;22.00;62.00
49148;DHT22;41980;45.550;12.070;2023-07-08T01:23:35;21.90;62.20
49148;DHT22;41980;45.550;12.070;2023-07-08T01:29:38;21.90;62.20
49148;DHT22;41980;45.550;12.070;2023-07-08T01:35:40;21.90;62.20
49148;DHT22;41980;45.550;12.070;2023-07-08T01:41:44;22.00;62.70
49148;DHT22;41980;45.550;12.070;2023-07-08T01:53:55;21.90;62.90
49148;DHT22;41980;45.550;12.070;2023-07-08T01:59:58;21.80;63.20
49148;DHT22;41980;45.550;12.070;2023-07-08T02:06:00;21.70;63.20
49148;DHT22;41980;45.550;12.070;2023-07-08T02:12:02;21.60;63.20
49148;DHT22;41980;45.550;12.070;2023-07-08T02:18:04;21.60;64.10
49148;DHT22;41980;45.550;12.070;2023-07-08T02:24:06;21.60;63.90
49148;DHT22;41980;45.550;12.070;2023-07-08T02:30:10;21.50;64.90
49148;DHT22;41980;45.550;12.070;2023-07-08T02:36:13;21.40;65.30
49148;DHT22;41980;45.550;12.070;2023-07-08T02:42:15;21.40;65.70
49148;DHT22;41980;45.550;12.070;2023-07-08T02:48:18;21.30;65.80
49148;DHT22;41980;45.550;12.070;2023-07-08T02:54:21;21.20;65.90
49148;DHT22;41980;45.550;12.070;2023-07-08T03:00:23;21.10;66.20
49148;DHT22;41980;45.550;12.070;2023-07-08T03:06:26;21.10;66.00
49148;DHT22;41980;45.550;12.070;2023-07-08T03:12:28;21.10;66.20
49148;DHT22;41980;45.550;12.070;2023-07-08T03:18:31;21.00;66.30
49148;DHT22;41980;45.550;12.070;2023-07-08T03:24:33;21.00;66.30
49148;DHT22;41980;45.550;12.070;2023-07-08T03:30:38;21.00;66.60
49148;DHT22;41980;45.550;12.070;2023-07-08T03:36:43;20.90;66.50
49148;DHT22;41980;45.550;12.070;2023-07-08T03:42:51;20.90;66.30
49148;DHT22;41980;45.550;12.070;2023-07-08T03:48:53;21.00;67.60
49148;DHT22;41980;45.550;12.070;2023-07-08T03:54:55;21.00;66.80
49148;DHT22;41980;45.550;12.070;2023-07-08T04:00:58;21.00;66.30
49148;DHT22;41980;45.550;12.070;2023-07-08T04:07:00;21.10;66.10
49148;DHT22;41980;45.550;12.070;2023-07-08T04:13:03;21.10;67.80
49148;DHT22;41980;45.550;12.070;2023-07-08T04:19:07;21.20;67.50
49148;DHT22;41980;45.550;12.070;2023-07-08T04:25:18;21.40;67.00
49148;DHT22;41980;45.550;12.070;2023-07-08T04:31:21;21.60;67.50
49148;DHT22;41980;45.550;12.070;2023-07-08T04:37:23;22.00;68.40
49148;DHT22;41980;45.550;12.070;2023-07-08T04:43:26;22.10;66.80
49148;DHT22;41980;45.550;12.070;2023-07-08T04:49:31;22.50;66.00
49148;DHT22;41980;45.550;12.070;2023-07-08T04:55:36;22.80;68.00
49148;DHT22;41980;45.550;12.070;2023-07-08T05:01:40;22.90;65.50
49148;DHT22;41980;45.550;12.070;2023-07-08T05:07:42;23.10;65.50
49148;DHT22;41980;45.550;12.070;2023-07-08T05:13:45;24.20;65.00
49148;DHT22;41980;45.550;12.070;2023-07-08T05:19:47;25.70;62.60
49148;DHT22;41980;45.550;12.070;2023-07-08T05:25:52;26.80;61.00
49148;DHT22;41980;45.550;12.070;2023-07-08T05:31:56;28.10;59.20
49148;DHT22;41980;45.550;12.070;2023-07-08T05:37:58;29.40;57.80
49148;DHT22;41980;45.550;12.070;2023-07-08T05:44:00;30.40;55.70
49148;DHT22;41980;45.550;12.070;2023-07-08T05:50:02;31.00;54.50
49148;DHT22;41980;45.550;12.070;2023-07-08T05:56:04;31.40;52.80
49148;DHT22;41980;45.550;12.070;2023-07-08T06:02:09;31.90;53.20
49148;DHT22;41980;45.550;12.070;2023-07-08T06:08:12;32.40;52.10
49148;DHT22;41980;45.550;12.070;2023-07-08T06:14:14;33.00;49.60
49148;DHT22;41980;45.550;12.070;2023-07-08T06:20:16;33.50;48.10
49148;DHT22;41980;45.550;12.070;2023-07-08T06:26:18;34.10;50.20
49148;DHT22;41980;45.550;12.070;2023-07-08T06:32:20;34.30;49.30
49148;DHT22;41980;45.550;12.070;2023-07-08T06:38:22;34.60;49.10
49148;DHT22;41980;45.550;12.070;2023-07-08T06:44:24;34.80;48.70
49148;DHT22;41980;45.550;12.070;2023-07-08T06:50:27;35.00;49.10
49148;DHT22;41980;45.550;12.070;2023-07-08T06:56:30;34.70;44.50
49148;DHT22;41980;45.550;12.070;2023-07-08T07:02:32;35.00;48.30
49148;DHT22;41980;45.550;12.070;2023-07-08T07:08:34;35.50;47.60
49148;DHT22;41980;45.550;12.070;2023-07-08T07:14:37;36.30;47.40
49148;DHT22;41980;45.550;12.070;2023-07-08T07:20:40;36.40;46.40
49148;DHT22;41980;45.550;12.070;2023-07-08T07:26:49;36.30;46.20
49148;DHT22;41980;45.550;12.070;2023-07-08T07:32:51;36.70;44.90
49148;DHT22;41980;45.550;12.070;2023-07-08T07:38:53;36.90;44.70
49148;DHT22;41980;45.550;12.070;2023-07-08T07:44:55;36.50;44.50
49148;DHT22;41980;45.550;12.070;2023-07-08T07:50:57;36.70;43.70
49148;DHT22;41980;45.550;12.070;2023-07-08T07:56:59;37.10;43.70
49148;DHT22;41980;45.550;12.070;2023-07-08T08:03:02;37.30;42.90
49148;DHT22;41980;45.550;12.070;2023-07-08T08:09:05;37.50;41.10
49148;DHT22;41980;45.550;12.070;2023-07-08T08:15:08;37.70;43.00
49148;DHT22;41980;45.550;12.070;2023-07-08T08:21:11;38.00;43.40
49148;DHT22;41980;45.550;12.070;2023-07-08T08:27:13;38.10;42.40
49148;DHT22;41980;45.550;12.070;2023-07-08T08:33:15;38.10;42.60
49148;DHT22;41980;45.550;12.070;2023-07-08T08:39:17;38.00;42.40
49148;DHT22;41980;45.550;12.070;2023-07-08T08:45:22;37.50;42.60
49148;DHT22;41980;45.550;12.070;2023-07-08T08:51:31;36.70;42.30
49148;DHT22;41980;45.550;12.070;2023-07-08T08:57:40;37.70;41.50
49148;DHT22;41980;45.550;12.070;2023-07-08T09:03:52;38.80;41.00
49148;DHT22;41980;45.550;12.070;2023-07-08T09:16:06;39.60;40.50
49148;DHT22;41980;45.550;12.070;2023-07-08T09:28:18;39.70;39.80
49148;DHT22;41980;45.550;12.070;2023-07-08T09:34:23;39.70;39.70
49148;DHT22;41980;45.550;12.070;2023-07-08T09:40:29;39.40;39.40
49148;DHT22;41980;45.550;12.070;2023-07-08T09:46:36;39.00;39.60
49148;DHT22;41980;45.550;12.070;2023-07-08T09:52:41;38.70;39.60
49148;DHT22;41980;45.550;12.070;2023-07-08T09:58:44;38.50;39.20
49148;DHT22;41980;45.550;12.070;2023-07-08T10:04:53;38.30;39.20
49148;DHT22;41980;45.550;12.070;2023-07-08T10:17:04;38.50;38.80
49148;DHT22;41980;45.550;12.070;2023-07-08T10:23:21;38.50;38.50
49148;DHT22;41980;45.550;12.070;2023-07-08T10:35:35;38.50;38.10
49148;DHT22;41980;45.550;12.070;2023-07-08T10:53:59;37.20;37.00
49148;DHT22;41980;45.550;12.070;2023-07-08T11:12:25;35.30;39.40
49148;DHT22;41980;45.550;12.070;2023-07-08T11:30:48;34.20;39.70
49148;DHT22;41980;45.550;12.070;2023-07-08T11:36:55;33.90;39.80
49148;DHT22;41980;45.550;12.070;2023-07-08T11:43:03;33.70;40.00
49148;DHT22;41980;45.550;12.070;2023-07-08T11:49:13;33.50;40.10
49148;DHT22;41980;45.550;12.070;2023-07-08T12:07:45;33.20;40.30
49148;DHT22;41980;45.550;12.070;2023-07-08T12:13:47;33.10;40.20
49148;DHT22;41980;45.550;12.070;2023-07-08T12:19:51;33.00;40.00
49148;DHT22;41980;45.550;12.070;2023-07-08T12:25:57;32.90;40.20
49148;DHT22;41980;45.550;12.070;2023-07-08T12:32:00;32.80;40.20
49148;DHT22;41980;45.550;12.070;2023-07-08T12:44:17;32.60;40.50
49148;DHT22;41980;45.550;12.070;2023-07-08T12:50:20;32.60;40.60
49148;DHT22;41980;45.550;12.070;2023-07-08T12:56:23;32.50;40.80
49148;DHT22;41980;45.550;12.070;2023-07-08T13:02:27;32.50;40.70
49148;DHT22;41980;45.550;12.070;2023-07-08T13:08:37;32.40;40.60
49148;DHT22;41980;45.550;12.070;2023-07-08T13:14:41;32.40;40.90
49148;DHT22;41980;45.550;12.070;2023-07-08T13:20:50;32.30;41.00
49148;DHT22;41980;45.550;12.070;2023-07-08T13:26:56;32.10;41.00
49148;DHT22;41980;45.550;12.070;2023-07-08T13:32:59;32.10;41.20
49148;DHT22;41980;45.550;12.070;2023-07-08T13:39:06;32.10;41.10
49148;DHT22;41980;45.550;12.070;2023-07-08T13:45:14;32.00;41.40
49148;DHT22;41980;45.550;12.070;2023-07-08T13:51:21;32.10;41.30
49148;DHT22;41980;45.550;12.070;2023-07-08T13:57:32;32.00;41.50
49148;DHT22;41980;45.550;12.070;2023-07-08T14:03:35;32.00;41.60
49148;DHT22;41980;45.550;12.070;2023-07-08T14:09:37;32.00;41.50
49148;DHT22;41980;45.550;12.070;2023-07-08T14:15:39;32.00;41.50
49148;DHT22;41980;45.550;12.070;2023-07-08T14:21:42;32.00;41.60
49148;DHT22;41980;45.550;12.070;2023-07-08T14:27:44;31.90;41.80
49148;DHT22;41980;45.550;12.070;2023-07-08T14:33:46;31.90;42.40
49148;DHT22;41980;45.550;12.070;2023-07-08T14:39:48;31.80;43.20
49148;DHT22;41980;45.550;12.070;2023-07-08T14:45:53;31.70;43.60
49148;DHT22;41980;45.550;12.070;2023-07-08T14:51:55;31.70;44.00
49148;DHT22;41980;45.550;12.070;2023-07-08T14:57:57;31.60;44.40
49148;DHT22;41980;45.550;12.070;2023-07-08T15:04:00;31.50;44.80
49148;DHT22;41980;45.550;12.070;2023-07-08T15:10:04;31.50;45.10
49148;DHT22;41980;45.550;12.070;2023-07-08T15:16:12;31.50;46.00
49148;DHT22;41980;45.550;12.070;2023-07-08T15:22:16;31.40;46.50
49148;DHT22;41980;45.550;12.070;2023-07-08T15:28:20;31.30;47.10
49148;DHT22;41980;45.550;12.070;2023-07-08T15:34:26;31.20;47.20
49148;DHT22;41980;45.550;12.070;2023-07-08T15:40:31;31.20;47.40
49148;DHT22;41980;45.550;12.070;2023-07-08T15:46:37;31.10;47.50
49148;DHT22;41980;45.550;12.070;2023-07-08T15:52:42;31.00;47.60
49148;DHT22;41980;45.550;12.070;2023-07-08T15:58:45;31.00;47.70
49148;DHT22;41980;45.550;12.070;2023-07-08T16:04:47;30.90;47.80
49148;DHT22;41980;45.550;12.070;2023-07-08T16:16:57;30.80;48.20
49148;DHT22;41980;45.550;12.070;2023-07-08T16:23:00;30.70;48.60
49148;DHT22;41980;45.550;12.070;2023-07-08T16:29:03;30.60;48.60
49148;DHT22;41980;45.550;12.070;2023-07-08T16:35:05;30.60;48.40
49148;DHT22;41980;45.550;12.070;2023-07-08T16:41:11;30.50;48.30
49148;DHT22;41980;45.550;12.070;2023-07-08T16:47:14;30.50;48.20
49148;DHT22;41980;45.550;12.070;2023-07-08T16:53:16;30.50;48.20
49148;DHT22;41980;45.550;12.070;2023-07-08T16:59:18;30.40;48.10
49148;DHT22;41980;45.550;12.070;2023-07-08T17:05:25;30.40;48.40
49148;DHT22;41980;45.550;12.070;2023-07-08T17:11:32;30.20;48.50
49148;DHT22;41980;45.550;12.070;2023-07-08T17:17:35;30.20;48.70
49148;DHT22;41980;45.550;12.070;2023-07-08T17:23:38;30.00;48.80
49148;DHT22;41980;45.550;12.070;2023-07-08T17:29:40;29.90;48.90
49148;DHT22;41980;45.550;12.070;2023-07-08T17:35:42;29.80;48.60
49148;DHT22;41980;45.550;12.070;2023-07-08T17:41:45;29.80;48.40
49148;DHT22;41980;45.550;12.070;2023-07-08T17:47:53;29.70;48.30
49148;DHT22;41980;45.550;12.070;2023-07-08T17:53:57;29.60;48.10
49148;DHT22;41980;45.550;12.070;2023-07-08T17:59:59;29.50;48.00
49148;DHT22;41980;45.550;12.070;2023-07-08T18:06:10;29.40;47.70
49148;DHT22;41980;45.550;12.070;2023-07-08T18:12:12;29.30;47.70
49148;DHT22;41980;45.550;12.070;2023-07-08T18:18:16;29.20;47.60
49148;DHT22;41980;45.550;12.070;2023-07-08T18:24:18;29.00;47.70
49148;DHT22;41980;45.550;12.070;2023-07-08T18:30:21;28.80;47.80
49148;DHT22;41980;45.550;12.070;2023-07-08T18:36:24;28.70;48.00
49148;DHT22;41980;45.550;12.070;2023-07-08T18:42:26;28.50;48.10
49148;DHT22;41980;45.550;12.070;2023-07-08T18:48:30;28.40;48.20
49148;DHT22;41980;45.550;12.070;2023-07-08T18:54:32;28.20;48.30
49148;DHT22;41980;45.550;12.070;2023-07-08T19:00:35;28.10;48.50
49148;DHT22;41980;45.550;12.070;2023-07-08T19:06:37;27.90;48.60
49148;DHT22;41980;45.550;12.070;2023-07-08T19:12:40;27.80;48.80
49148;DHT22;41980;45.550;12.070;2023-07-08T19:18:44;27.60;49.00
49148;DHT22;41980;45.550;12.070;2023-07-08T19:24:47;27.50;49.10
49148;DHT22;41980;45.550;12.070;2023-07-08T19:30:54;27.40;49.30
49148;DHT22;41980;45.550;12.070;2023-07-08T19:36:57;27.30;49.70
49148;DHT22;41980;45.550;12.070;2023-07-08T19:42:59;27.20;49.90
49148;DHT22;41980;45.550;12.070;2023-07-08T19:49:01;27.10;50.10
49148;DHT22;41980;45.550;12.070;2023-07-08T19:55:06;27.00;50.10
49148;DHT22;41980;45.550;12.070;2023-07-08T20:01:11;26.90;50.20
49148;DHT22;41980;45.550;12.070;2023-07-08T20:07:15;26.90;50.50
49148;DHT22;41980;45.550;12.070;2023-07-08T20:13:23;26.80;50.60
49148;DHT22;41980;45.550;12.070;2023-07-08T20:19:25;26.70;50.80
49148;DHT22;41980;45.550;12.070;2023-07-08T20:25:30;26.60;51.00
49148;DHT22;41980;45.550;12.070;2023-07-08T20:31:34;26.50;51.30
49148;DHT22;41980;45.550;12.070;2023-07-08T20:37:38;26.50;51.40
49148;DHT22;41980;45.550;12.070;2023-07-08T20:43:40;26.50;51.70
49148;DHT22;41980;45.550;12.070;2023-07-08T20:49:44;26.40;51.90
49148;DHT22;41980;45.550;12.070;2023-07-08T20:55:48;26.40;52.10
49148;DHT22;41980;45.550;12.070;2023-07-08T21:01:54;26.30;52.00
49148;DHT22;41980;45.550;12.070;2023-07-08T21:07:58;26.20;52.20
49148;DHT22;41980;45.550;12.070;2023-07-08T21:14:01;26.20;52.20
49148;DHT22;41980;45.550;12.070;2023-07-08T21:26:17;26.00;53.60
49148;DHT22;41980;45.550;12.070;2023-07-08T21:32:21;25.80;55.50
49148;DHT22;41980;45.550;12.070;2023-07-08T21:38:24;25.60;53.70
49148;DHT22;41980;45.550;12.070;2023-07-08T21:44:27;25.50;53.90
49148;DHT22;41980;45.550;12.070;2023-07-08T21:56:40;25.40;54.10
49148;DHT22;41980;45.550;12.070;2023-07-08T22:02:48;25.40;54.30
49148;DHT22;41980;45.550;12.070;2023-07-08T22:08:50;25.30;54.10
49148;DHT22;41980;45.550;12.070;2023-07-08T22:14:54;25.30;54.20
49148;DHT22;41980;45.550;12.070;2023-07-08T22:21:00;25.20;54.80
49148;DHT22;41980;45.550;12.070;2023-07-08T22:27:03;25.10;54.40
49148;DHT22;41980;45.550;12.070;2023-07-08T22:33:07;25.10;54.60
49148;DHT22;41980;45.550;12.070;2023-07-08T22:39:11;25.00;54.90
49148;DHT22;41980;45.550;12.070;2023-07-08T22:45:15;24.90;54.90
49148;DHT22;41980;45.550;12.070;2023-07-08T22:51:18;24.80;54.80
49148;DHT22;41980;45.550;12.070;2023-07-08T22:57:20;24.70;55.20
49148;DHT22;41980;45.550;12.070;2023-07-08T23:03:23;24.70;55.70
49148;DHT22;41980;45.550;12.070;2023-07-08T23:09:25;24.50;56.10
49148;DHT22;41980;45.550;12.070;2023-07-08T23:15:27;24.50;55.70
49148;DHT22;41980;45.550;12.070;2023-07-08T23:21:30;24.40;55.90
49148;DHT22;41980;45.550;12.070;2023-07-08T23:27:33;24.30;56.00
49148;DHT22;41980;45.550;12.070;2023-07-08T23:33:36;24.30;56.60
49148;DHT22;41980;45.550;12.070;2023-07-08T23:39:40;24.20;56.90
49148;DHT22;41980;45.550;12.070;2023-07-08T23:45:44;24.10;57.60
49148;DHT22;41980;45.550;12.070;2023-07-08T23:51:48;24.10;58.40
49148;DHT22;41980;45.550;12.070;2023-07-08T23:57:51;24.00;59.00
